Time,TemperatureF,DewpointF,PressureIn,WindDirection,WindDirectionDegrees,WindSpeedMPH,WindSpeedGustMPH,Humidity,HourlyPrecipIn,Conditions,Clouds,dailyrainin,SoftwareType,DateUTC
2013-03-18 00:00:00,23.5,20.2,29.67,ESE,119,1.0,16.0,87,0.00,,,0.00,WUHU216DAVISVP2,2013-03-18 05:00:00,
2013-03-18 00:05:00,23.6,20.3,29.67,South,188,0.0,16.0,87,0.00,,,0.00,WUHU216DAVISVP2,2013-03-18 05:05:00,
2013-03-18 00:10:00,23.6,20.3,29.67,ESE,115,14.0,16.0,87,0.00,,,0.00,WUHU216DAVISVP2,2013-03-18 05:10:00,
2013-03-18 00:15:00,23.7,20.4,29.66,SSE,165,1.0,16.0,87,0.00,,,0.00,WUHU216DAVISVP2,2013-03-18 05:15:00,
2013-03-18 00:20:00,23.8,20.5,29.66,ESE,118,15.0,20.0,87,0.00,,,0.00,WUHU216DAVISVP2,2013-03-18 05:20:00,
2013-03-18 00:25:00,23.9,20.6,29.66,ESE,105,2.0,20.0,87,0.00,,,0.00,WUHU216DAVISVP2,2013-03-18 05:25:00,
2013-03-18 00:30:00,24.0,20.7,29.65,SE,132,3.0,19.0,87,0.00,,,0.00,WUHU216DAVISVP2,2013-03-18 05:30:00,
2013-03-18 00:35:00,24.0,20.7,29.65,SSE,159,1.0,14.0,87,0.00,,,0.00,WUHU216DAVISVP2,2013-03-18 05:35:00,
2013-03-18 00:40:00,24.1,20.8,29.65,SSE,161,0.0,15.0,87,0.00,,,0.00,WUHU216DAVISVP2,2013-03-18 05:40:00,
2013-03-18 00:45:00,24.2,20.9,29.64,SE,138,0.0,15.0,87,0.00,,,0.00,WUHU216DAVISVP2,2013-03-18 05:45:00,
2013-03-18 00:50:00,24.4,21.0,29.64,SE,145,2.0,12.0,87,0.00,,,0.00,WUHU216DAVISVP2,2013-03-18 05:50:00,
2013-03-18 00:55:00,24.5,21.1,29.64,SE,141,4.0,15.0,87,0.00,,,0.00,WUHU216DAVISVP2,2013-03-18 05:55:00,
2013-03-18 01:00:00,24.7,21.3,29.63,SE,142,3.0,15.0,87,0.00,,,0.00,WUHU216DAVISVP2,2013-03-18 06:00:00,
2013-03-18 01:05:00,24.8,21.4,29.63,SSE,156,1.0,16.0,87,0.00,,,0.00,WUHU216DAVISVP2,2013-03-18 06:05:00,
2013-03-18 01:10:00,24.9,21.5,29.62,South,171,3.0,16.0,87,0.00,,,0.00,WUHU216DAVISVP2,2013-03-18 06:10:00,
2013-03-18 01:15:00,25.1,21.7,29.62,South,180,3.0,16.0,87,0.00,,,0.00,WUHU216DAVISVP2,2013-03-18 06:15:00,
2013-03-18 01:20:00,25.1,21.7,29.62,ESE,122,4.0,23.0,87,0.00,,,0.00,WUHU216DAVISVP2,2013-03-18 06:20:00,
2013-03-18 01:25:00,25.2,21.8,29.61,South,180,1.0,23.0,87,0.00,,,0.00,WUHU216DAVISVP2,2013-03-18 06:25:00,
2013-03-18 01:30:00,25.3,22.2,29.61,SSE,148,15.0,15.0,88,0.00,,,0.00,WUHU216DAVISVP2,2013-03-18 06:30:00,
2013-03-18 01:35:00,25.4,22.3,29.61,SSE,150,1.0,21.0,88,0.00,,,0.00,WUHU216DAVISVP2,2013-03-18 06:35:00,
2013-03-18 01:40:00,25.6,22.5,29.60,SSE,163,0.0,21.0,88,0.00,,,0.00,WUHU216DAVISVP2,2013-03-18 06:40:00,
2013-03-18 01:45:00,25.7,22.6,29.60,SE,146,0.0,17.0,88,0.00,,,0.00,WUHU216DAVISVP2,2013-03-18 06:45:00,
2013-03-18 01:50:00,25.7,22.6,29.59,ESE,107,5.0,17.0,88,0.00,,,0.00,WUHU216DAVISVP2,2013-03-18 06:50:00,
2013-03-18 01:55:00,25.8,22.7,29.59,SSE,153,2.0,16.0,88,0.00,,,0.00,WUHU216DAVISVP2,2013-03-18 06:55:00,
2013-03-18 02:00:00,25.8,22.7,29.59,SSE,155,0.0,16.0,88,0.00,,,0.00,WUHU216DAVISVP2,2013-03-18 07:00:00,
2013-03-18 02:05:00,26.0,22.9,29.59,South,173,0.0,12.0,88,0.00,,,0.00,WUHU216DAVISVP2,2013-03-18 07:05:00,
2013-03-18 02:10:00,26.1,23.0,29.58,SSE,158,2.0,12.0,88,0.00,,,0.00,WUHU216DAVISVP2,2013-03-18 07:10:00,
2013-03-18 02:15:00,26.2,23.1,29.58,SSE,165,3.0,14.0,88,0.00,,,0.00,WUHU216DAVISVP2,2013-03-18 07:15:00,
2013-03-18 02:20:00,26.4,23.3,29.58,SSE,164,2.0,14.0,88,0.00,,,0.00,WUHU216DAVISVP2,2013-03-18 07:20:00,
2013-03-18 02:25:00,26.7,23.6,29.58,South,186,3.0,14.0,88,0.00,,,0.00,WUHU216DAVISVP2,2013-03-18 07:25:00,
2013-03-18 02:30:00,26.9,23.8,29.57,SSE,168,6.0,15.0,88,0.00,,,0.00,WUHU216DAVISVP2,2013-03-18 07:30:00,
2013-03-18 02:35:00,27.1,24.0,29.57,ESE,114,7.0,17.0,88,0.00,,,0.00,WUHU216DAVISVP2,2013-03-18 07:35:00,
2013-03-18 02:40:00,27.3,24.2,29.57,SSE,148,4.0,17.0,88,0.00,,,0.00,WUHU216DAVISVP2,2013-03-18 07:40:00,
2013-03-18 02:45:00,27.5,24.4,29.56,South,179,1.0,16.0,88,0.00,,,0.00,WUHU216DAVISVP2,2013-03-18 07:45:00,
2013-03-18 02:50:00,27.6,24.5,29.56,SSE,156,6.0,17.0,88,0.00,,,0.00,WUHU216DAVISVP2,2013-03-18 07:50:00,
2013-03-18 02:55:00,27.7,24.6,29.56,SSE,159,0.0,17.0,88,0.00,,,0.00,WUHU216DAVISVP2,2013-03-18 07:55:00,
2013-03-18 03:00:00,27.9,24.8,29.56,SSE,163,0.0,16.0,88,0.00,,,0.00,WUHU216DAVISVP2,2013-03-18 08:00:00,
2013-03-18 03:05:00,28.0,24.9,29.55,SSE,165,4.0,16.0,88,0.00,,,0.00,WUHU216DAVISVP2,2013-03-18 08:05:00,
2013-03-18 03:10:00,28.0,24.9,29.55,SE,142,0.0,13.0,88,0.00,,,0.00,WUHU216DAVISVP2,2013-03-18 08:10:00,
2013-03-18 03:15:00,28.0,24.9,29.54,South,186,4.0,13.0,88,0.00,,,0.00,WUHU216DAVISVP2,2013-03-18 08:15:00,
2013-03-18 03:20:00,28.1,25.2,29.54,SE,140,3.0,15.0,89,0.00,,,0.00,WUHU216DAVISVP2,2013-03-18 08:20:00,
2013-03-18 03:25:00,28.2,25.3,29.54,South,180,1.0,15.0,89,0.00,,,0.00,WUHU216DAVISVP2,2013-03-18 08:25:00,
2013-03-18 03:30:00,28.2,25.3,29.53,East,94,2.0,14.0,89,0.00,,,0.00,WUHU216DAVISVP2,2013-03-18 08:30:00,
2013-03-18 03:35:00,28.3,25.4,29.53,SSE,163,0.0,16.0,89,0.00,,,0.00,WUHU216DAVISVP2,2013-03-18 08:35:00,
2013-03-18 03:40:00,28.3,25.4,29.52,SE,136,7.0,16.0,89,0.00,,,0.00,WUHU216DAVISVP2,2013-03-18 08:40:00,
2013-03-18 03:45:00,28.4,25.5,29.52,SE,146,0.0,11.0,89,0.00,,,0.00,WUHU216DAVISVP2,2013-03-18 08:45:00,
2013-03-18 03:50:00,28.5,25.6,29.52,SE,146,5.0,11.0,89,0.00,,,0.00,WUHU216DAVISVP2,2013-03-18 08:50:00,
2013-03-18 03:55:00,28.6,25.7,29.51,South,178,12.0,14.0,89,0.00,,,0.00,WUHU216DAVISVP2,2013-03-18 08:55:00,
2013-03-18 04:00:00,28.8,25.9,29.51,SSE,157,5.0,14.0,89,0.00,,,0.00,WUHU216DAVISVP2,2013-03-18 09:00:00,
2013-03-18 04:05:00,28.8,25.9,29.51,SSW,195,3.0,17.0,89,0.00,,,0.00,WUHU216DAVISVP2,2013-03-18 09:05:00,
2013-03-18 04:10:00,28.9,26.0,29.50,South,170,4.0,17.0,89,0.00,,,0.00,WUHU216DAVISVP2,2013-03-18 09:10:00,
2013-03-18 04:15:00,29.0,26.1,29.50,South,191,4.0,17.0,89,0.00,,,0.00,WUHU216DAVISVP2,2013-03-18 09:15:00,
2013-03-18 04:20:00,29.1,26.2,29.50,SE,134,3.0,17.0,89,0.00,,,0.00,WUHU216DAVISVP2,2013-03-18 09:20:00,
2013-03-18 04:25:00,29.2,26.3,29.50,South,178,1.0,11.0,89,0.00,,,0.00,WUHU216DAVISVP2,2013-03-18 09:25:00,
2013-03-18 04:30:00,29.3,26.4,29.50,South,175,0.0,15.0,89,0.00,,,0.00,WUHU216DAVISVP2,2013-03-18 09:30:00,
2013-03-18 04:35:00,29.4,26.5,29.50,SSW,193,9.0,18.0,89,0.00,,,0.00,WUHU216DAVISVP2,2013-03-18 09:35:00,
2013-03-18 04:40:00,29.5,26.6,29.50,South,180,3.0,18.0,89,0.00,,,0.00,WUHU216DAVISVP2,2013-03-18 09:40:00,
2013-03-18 04:45:00,29.6,26.7,29.50,WSW,246,3.0,10.0,89,0.00,,,0.00,WUHU216DAVISVP2,2013-03-18 09:45:00,
2013-03-18 04:50:00,29.7,26.8,29.50,South,188,0.0,7.0,89,0.00,,,0.00,WUHU216DAVISVP2,2013-03-18 09:50:00,
2013-03-18 04:55:00,29.8,26.9,29.49,South,183,1.0,7.0,89,0.00,,,0.00,WUHU216DAVISVP2,2013-03-18 09:55:00,
2013-03-18 05:00:00,29.8,26.9,29.49,SSW,198,4.0,7.0,89,0.00,,,0.00,WUHU216DAVISVP2,2013-03-18 10:00:00,
2013-03-18 05:05:00,29.9,27.0,29.49,SSE,157,1.0,10.0,89,0.00,,,0.00,WUHU216DAVISVP2,2013-03-18 10:05:00,
2013-03-18 05:10:00,30.1,27.2,29.49,SSW,195,3.0,10.0,89,0.00,,,0.00,WUHU216DAVISVP2,2013-03-18 10:10:00,
2013-03-18 05:15:00,30.2,27.3,29.49,South,187,0.0,7.0,89,0.00,,,0.00,WUHU216DAVISVP2,2013-03-18 10:15:00,
2013-03-18 05:20:00,30.4,27.5,29.49,WSW,239,4.0,7.0,89,0.00,,,0.00,WUHU216DAVISVP2,2013-03-18 10:20:00,
2013-03-18 05:25:00,30.5,27.6,29.49,SW,232,3.0,7.0,89,0.00,,,0.00,WUHU216DAVISVP2,2013-03-18 10:25:00,
2013-03-18 05:30:00,30.5,27.6,29.49,SW,236,2.0,7.0,89,0.00,,,0.00,WUHU216DAVISVP2,2013-03-18 10:30:00,
2013-03-18 05:35:00,30.1,27.2,29.49,WNW,288,7.0,10.0,89,0.00,,,0.00,WUHU216DAVISVP2,2013-03-18 10:35:00,
2013-03-18 05:40:00,29.0,26.1,29.49,WNW,292,9.0,14.0,89,0.00,,,0.00,WUHU216DAVISVP2,2013-03-18 10:40:00,
2013-03-18 05:45:00,28.0,25.1,29.49,North,355,5.0,14.0,89,0.00,,,0.00,WUHU216DAVISVP2,2013-03-18 10:45:00,
2013-03-18 05:50:00,27.1,24.0,29.50,WNW,286,6.0,17.0,88,0.00,,,0.00,WUHU216DAVISVP2,2013-03-18 10:50:00,
2013-03-18 05:55:00,26.2,23.1,29.50,WNW,294,1.0,17.0,88,0.00,,,0.00,WUHU216DAVISVP2,2013-03-18 10:55:00,
2013-03-18 06:00:00,25.2,22.1,29.50,West,259,4.0,16.0,88,0.00,,,0.00,WUHU216DAVISVP2,2013-03-18 11:00:00,
2013-03-18 06:05:00,24.2,20.9,29.50,WNW,283,2.0,16.0,87,0.00,,,0.00,WUHU216DAVISVP2,2013-03-18 11:05:00,
2013-03-18 06:10:00,23.7,20.4,29.51,West,273,4.0,14.0,87,0.00,,,0.00,WUHU216DAVISVP2,2013-03-18 11:10:00,
2013-03-18 06:15:00,23.3,20.0,29.51,WNW,287,1.0,15.0,87,0.00,,,0.00,WUHU216DAVISVP2,2013-03-18 11:15:00,
2013-03-18 06:20:00,22.9,19.6,29.51,WNW,292,3.0,19.0,87,0.00,,,0.00,WUHU216DAVISVP2,2013-03-18 11:20:00,
2013-03-18 06:25:00,22.4,19.1,29.51,WNW,295,14.0,22.0,87,0.00,,,0.00,WUHU216DAVISVP2,2013-03-18 11:25:00,
2013-03-18 06:30:00,22.1,18.8,29.51,WNW,292,15.0,22.0,87,0.00,,,0.00,WUHU216DAVISVP2,2013-03-18 11:30:00,
2013-03-18 06:35:00,21.8,18.5,29.51,West,275,5.0,17.0,87,0.00,,,0.00,WUHU216DAVISVP2,2013-03-18 11:35:00,
2013-03-18 06:40:00,21.5,17.9,29.51,West,272,9.0,21.0,86,0.00,,,0.00,WUHU216DAVISVP2,2013-03-18 11:40:00,
2013-03-18 06:45:00,21.2,17.6,29.51,NW,321,4.0,21.0,86,0.00,,,0.00,WUHU216DAVISVP2,2013-03-18 11:45:00,
2013-03-18 06:50:00,20.9,17.3,29.52,NW,324,10.0,20.0,86,0.00,,,0.00,WUHU216DAVISVP2,2013-03-18 11:50:00,
2013-03-18 06:55:00,20.6,17.0,29.52,WNW,285,15.0,20.0,86,0.00,,,0.00,WUHU216DAVISVP2,2013-03-18 11:55:00,
2013-03-18 07:00:00,20.4,16.8,29.52,West,280,11.0,24.0,86,0.00,,,0.00,WUHU216DAVISVP2,2013-03-18 12:00:00,
2013-03-18 07:05:00,20.1,16.6,29.52,WNW,296,6.0,24.0,86,0.00,,,0.00,WUHU216DAVISVP2,2013-03-18 12:05:00,
2013-03-18 07:10:00,19.7,16.2,29.53,WNW,288,12.0,17.0,86,0.00,,,0.00,WUHU216DAVISVP2,2013-03-18 12:10:00,
2013-03-18 07:15:00,19.3,15.8,29.53,ESE,107,6.0,22.0,86,0.00,,,0.00,WUHU216DAVISVP2,2013-03-18 12:15:00,
2013-03-18 07:20:00,19.0,15.2,29.53,WNW,287,13.0,25.0,85,0.00,,,0.00,WUHU216DAVISVP2,2013-03-18 12:20:00,
2013-03-18 07:25:00,18.8,15.0,29.53,West,276,9.0,25.0,85,0.00,,,0.00,WUHU216DAVISVP2,2013-03-18 12:25:00,
2013-03-18 07:30:00,18.5,14.7,29.53,NW,315,13.0,24.0,85,0.00,,,0.00,WUHU216DAVISVP2,2013-03-18 12:30:00,
2013-03-18 07:35:00,18.3,14.5,29.54,WNW,292,8.0,24.0,85,0.00,,,0.00,WUHU216DAVISVP2,2013-03-18 12:35:00,
2013-03-18 07:40:00,18.0,14.2,29.54,WNW,284,15.0,19.0,85,0.00,,,0.00,WUHU216DAVISVP2,2013-03-18 12:40:00,
2013-03-18 07:45:00,17.9,14.1,29.54,West,263,11.0,19.0,85,0.00,,,0.00,WUHU216DAVISVP2,2013-03-18 12:45:00,
2013-03-18 07:50:00,17.7,13.9,29.54,WNW,300,6.0,21.0,85,0.00,,,0.00,WUHU216DAVISVP2,2013-03-18 12:50:00,
2013-03-18 07:55:00,17.5,13.7,29.55,West,261,9.0,21.0,85,0.00,,,0.00,WUHU216DAVISVP2,2013-03-18 12:55:00,
2013-03-18 08:00:00,17.2,13.4,29.55,West,268,0.0,20.0,85,0.00,,,0.00,WUHU216DAVISVP2,2013-03-18 13:00:00,
2013-03-18 08:05:00,16.9,13.1,29.56,West,281,7.0,20.0,85,0.00,,,0.00,WUHU216DAVISVP2,2013-03-18 13:05:00,
2013-03-18 08:10:00,16.8,13.0,29.56,West,273,16.0,19.0,85,0.00,,,0.00,WUHU216DAVISVP2,2013-03-18 13:10:00,
2013-03-18 08:15:00,16.5,12.7,29.56,West,277,14.0,24.0,85,0.00,,,0.00,WUHU216DAVISVP2,2013-03-18 13:15:00,
2013-03-18 08:20:00,16.4,12.4,29.56,WNW,290,11.0,24.0,84,0.00,,,0.00,WUHU216DAVISVP2,2013-03-18 13:20:00,
2013-03-18 08:25:00,16.2,12.2,29.56,WNW,299,5.0,18.0,84,0.00,,,0.00,WUHU216DAVISVP2,2013-03-18 13:25:00,
2013-03-18 08:30:00,16.1,12.1,29.57,NW,308,8.0,19.0,84,0.00,,,0.00,WUHU216DAVISVP2,2013-03-18 13:30:00,
2013-03-18 08:35:00,16.1,12.4,29.57,WNW,298,7.0,21.0,85,0.00,,,0.00,WUHU216DAVISVP2,2013-03-18 13:35:00,
2013-03-18 08:40:00,16.0,12.3,29.57,NW,321,21.0,23.0,85,0.00,,,0.00,WUHU216DAVISVP2,2013-03-18 13:40:00,
2013-03-18 08:45:00,15.9,12.2,29.57,WNW,284,11.0,23.0,85,0.00,,,0.00,WUHU216DAVISVP2,2013-03-18 13:45:00,
2013-03-18 08:50:00,15.7,11.7,29.58,WNW,298,16.0,25.0,84,0.00,,,0.00,WUHU216DAVISVP2,2013-03-18 13:50:00,
2013-03-18 08:55:00,15.4,11.4,29.58,WNW,291,17.0,27.0,84,0.00,,,0.00,WUHU216DAVISVP2,2013-03-18 13:55:00,
2013-03-18 09:00:00,15.2,11.2,29.58,WNW,288,15.0,27.0,84,0.00,,,0.00,WUHU216DAVISVP2,2013-03-18 14:00:00,
2013-03-18 09:05:00,14.9,10.9,29.59,West,260,14.0,22.0,84,0.00,,,0.00,WUHU216DAVISVP2,2013-03-18 14:05:00,
2013-03-18 09:10:00,14.8,10.8,29.59,NW,325,7.0,24.0,84,0.00,,,0.00,WUHU216DAVISVP2,2013-03-18 14:10:00,
2013-03-18 09:15:00,14.7,10.7,29.59,WNW,295,8.0,24.0,84,0.00,,,0.00,WUHU216DAVISVP2,2013-03-18 14:15:00,
2013-03-18 09:20:00,14.5,10.5,29.60,WNW,284,5.0,23.0,84,0.00,,,0.00,WUHU216DAVISVP2,2013-03-18 14:20:00,
2013-03-18 09:25:00,14.4,10.4,29.60,NW,321,10.0,23.0,84,0.00,,,0.00,WUHU216DAVISVP2,2013-03-18 14:25:00,
2013-03-18 09:30:00,14.3,10.3,29.61,WNW,300,15.0,21.0,84,0.00,,,0.00,WUHU216DAVISVP2,2013-03-18 14:30:00,
2013-03-18 09:35:00,14.0,10.0,29.61,WNW,299,9.0,24.0,84,0.00,,,0.00,WUHU216DAVISVP2,2013-03-18 14:35:00,
2013-03-18 09:40:00,13.8,9.8,29.61,West,261,10.0,24.0,84,0.00,,,0.00,WUHU216DAVISVP2,2013-03-18 14:40:00,
2013-03-18 09:45:00,13.7,9.7,29.62,West,279,8.0,24.0,84,0.00,,,0.00,WUHU216DAVISVP2,2013-03-18 14:45:00,
2013-03-18 09:50:00,13.6,9.6,29.62,North,355,14.0,26.0,84,0.00,,,0.00,WUHU216DAVISVP2,2013-03-18 14:50:00,
2013-03-18 09:55:00,13.5,9.5,29.62,NNW,340,14.0,26.0,84,0.00,,,0.00,WUHU216DAVISVP2,2013-03-18 14:55:00,
2013-03-18 10:00:00,13.5,9.5,29.63,West,267,13.0,20.0,84,0.00,,,0.00,WUHU216DAVISVP2,2013-03-18 15:00:00,
2013-03-18 10:05:00,13.4,9.4,29.64,WSW,256,9.0,25.0,84,0.00,,,0.00,WUHU216DAVISVP2,2013-03-18 15:05:00,
2013-03-18 10:10:00,13.2,9.2,29.64,West,275,5.0,28.0,84,0.00,,,0.00,WUHU216DAVISVP2,2013-03-18 15:10:00,
2013-03-18 10:15:00,13.2,9.2,29.64,WNW,284,11.0,28.0,84,0.00,,,0.00,WUHU216DAVISVP2,2013-03-18 15:15:00,
2013-03-18 10:20:00,13.1,9.1,29.64,WNW,302,7.0,27.0,84,0.00,,,0.00,WUHU216DAVISVP2,2013-03-18 15:20:00,
2013-03-18 10:25:00,13.1,9.1,29.64,WSW,254,15.0,27.0,84,0.00,,,0.00,WUHU216DAVISVP2,2013-03-18 15:25:00,
2013-03-18 10:30:00,13.2,9.2,29.65,West,279,12.0,22.0,84,0.00,,,0.00,WUHU216DAVISVP2,2013-03-18 15:30:00,
2013-03-18 10:35:00,13.4,9.4,29.65,WNW,296,14.0,21.0,84,0.00,,,0.00,WUHU216DAVISVP2,2013-03-18 15:35:00,
2013-03-18 10:40:00,13.5,9.5,29.65,West,276,20.0,24.0,84,0.00,,,0.00,WUHU216DAVISVP2,2013-03-18 15:40:00,
2013-03-18 10:45:00,13.4,9.4,29.66,NW,311,11.0,24.0,84,0.00,,,0.00,WUHU216DAVISVP2,2013-03-18 15:45:00,
2013-03-18 10:50:00,13.4,9.4,29.66,WNW,282,3.0,23.0,84,0.00,,,0.00,WUHU216DAVISVP2,2013-03-18 15:50:00,
2013-03-18 10:55:00,13.4,9.2,29.66,WNW,293,5.0,25.0,83,0.00,,,0.00,WUHU216DAVISVP2,2013-03-18 15:55:00,
2013-03-18 11:00:00,13.2,9.0,29.67,WNW,302,9.0,25.0,83,0.00,,,0.00,WUHU216DAVISVP2,2013-03-18 16:00:00,
2013-03-18 11:05:00,13.0,8.8,29.67,West,275,11.0,25.0,83,0.00,,,0.00,WUHU216DAVISVP2,2013-03-18 16:05:00,
2013-03-18 11:10:00,13.0,8.8,29.67,NW,324,7.0,25.0,83,0.00,,,0.00,WUHU216DAVISVP2,2013-03-18 16:10:00,
2013-03-18 11:15:00,13.2,9.2,29.68,West,269,12.0,25.0,84,0.00,,,0.00,WUHU216DAVISVP2,2013-03-18 16:15:00,
2013-03-18 11:20:00,13.0,8.8,29.68,NW,306,13.0,25.0,83,0.00,,,0.00,WUHU216DAVISVP2,2013-03-18 16:20:00,
2013-03-18 11:25:00,13.0,8.8,29.68,West,281,10.0,24.0,83,0.00,,,0.00,WUHU216DAVISVP2,2013-03-18 16:25:00,
2013-03-18 11:30:00,13.3,9.3,29.68,West,269,9.0,20.0,84,0.00,,,0.00,WUHU216DAVISVP2,2013-03-18 16:30:00,
2013-03-18 11:35:00,13.6,9.6,29.69,WNW,284,4.0,20.0,84,0.00,,,0.00,WUHU216DAVISVP2,2013-03-18 16:35:00,
2013-03-18 11:40:00,13.7,9.7,29.69,West,275,14.0,23.0,84,0.00,,,0.00,WUHU216DAVISVP2,2013-03-18 16:40:00,
2013-03-18 11:45:00,13.7,9.5,29.70,West,277,6.0,23.0,83,0.00,,,0.00,WUHU216DAVISVP2,2013-03-18 16:45:00,
2013-03-18 11:50:00,13.8,9.8,29.70,WNW,292,13.0,21.0,84,0.00,,,0.00,WUHU216DAVISVP2,2013-03-18 16:50:00,
2013-03-18 11:55:00,13.8,9.6,29.71,West,267,11.0,20.0,83,0.00,,,0.00,WUHU216DAVISVP2,2013-03-18 16:55:00,
2013-03-18 12:00:00,13.7,9.5,29.71,WNW,290,6.0,21.0,83,0.00,,,0.00,WUHU216DAVISVP2,2013-03-18 17:00:00,
2013-03-18 12:05:00,13.6,9.4,29.71,WNW,302,12.0,30.0,83,0.00,,,0.00,WUHU216DAVISVP2,2013-03-18 17:05:00,
2013-03-18 12:10:00,13.9,9.7,29.71,NW,311,13.0,30.0,83,0.00,,,0.00,WUHU216DAVISVP2,2013-03-18 17:10:00,
2013-03-18 12:15:00,14.0,9.8,29.72,WNW,302,5.0,21.0,83,0.00,,,0.00,WUHU216DAVISVP2,2013-03-18 17:15:00,
2013-03-18 12:20:00,14.2,10.0,29.72,WNW,290,5.0,21.0,83,0.00,,,0.00,WUHU216DAVISVP2,2013-03-18 17:20:00,
2013-03-18 12:25:00,14.4,10.4,29.72,WNW,287,15.0,22.0,84,0.00,,,0.00,WUHU216DAVISVP2,2013-03-18 17:25:00,
2013-03-18 12:30:00,14.6,10.4,29.73,WNW,289,4.0,24.0,83,0.00,,,0.00,WUHU216DAVISVP2,2013-03-18 17:30:00,
2013-03-18 12:35:00,14.7,10.5,29.73,WSW,241,10.0,24.0,83,0.00,,,0.00,WUHU216DAVISVP2,2013-03-18 17:35:00,
2013-03-18 12:40:00,14.8,10.6,29.73,West,272,16.0,24.0,83,0.00,,,0.00,WUHU216DAVISVP2,2013-03-18 17:40:00,
2013-03-18 12:45:00,14.8,10.6,29.73,West,280,7.0,22.0,83,0.00,,,0.00,WUHU216DAVISVP2,2013-03-18 17:45:00,
2013-03-18 12:50:00,14.9,10.7,29.73,WNW,300,12.0,21.0,83,0.00,,,0.00,WUHU216DAVISVP2,2013-03-18 17:50:00,
2013-03-18 12:55:00,15.3,11.3,29.73,WNW,298,12.0,20.0,84,0.00,,,0.00,WUHU216DAVISVP2,2013-03-18 17:55:00,
2013-03-18 13:00:00,15.6,11.6,29.74,West,273,3.0,23.0,84,0.00,,,0.00,WUHU216DAVISVP2,2013-03-18 18:00:00,
2013-03-18 13:05:00,15.8,11.5,29.74,North,350,19.0,23.0,83,0.00,,,0.00,WUHU216DAVISVP2,2013-03-18 18:05:00,
2013-03-18 13:10:00,15.8,11.5,29.74,NNW,340,7.0,25.0,83,0.00,,,0.00,WUHU216DAVISVP2,2013-03-18 18:10:00,
2013-03-18 13:15:00,15.7,11.4,29.74,WNW,300,13.0,25.0,83,0.00,,,0.00,WUHU216DAVISVP2,2013-03-18 18:15:00,
2013-03-18 13:20:00,15.6,11.3,29.74,NW,317,5.0,23.0,83,0.00,,,0.00,WUHU216DAVISVP2,2013-03-18 18:20:00,
2013-03-18 13:25:00,15.8,11.5,29.75,WNW,292,3.0,23.0,83,0.00,,,0.00,WUHU216DAVISVP2,2013-03-18 18:25:00,
2013-03-18 13:30:00,16.0,11.7,29.75,NW,326,18.0,21.0,83,0.00,,,0.00,WUHU216DAVISVP2,2013-03-18 18:30:00,
2013-03-18 13:35:00,16.1,11.8,29.76,North,355,5.0,22.0,83,0.00,,,0.00,WUHU216DAVISVP2,2013-03-18 18:35:00,
2013-03-18 13:40:00,16.3,12.0,29.76,North,355,16.0,22.0,83,0.00,,,0.00,WUHU216DAVISVP2,2013-03-18 18:40:00,
2013-03-18 13:45:00,16.1,11.8,29.76,West,271,10.0,25.0,83,0.00,,,0.00,WUHU216DAVISVP2,2013-03-18 18:45:00,
2013-03-18 13:50:00,16.0,11.5,29.77,West,278,5.0,25.0,82,0.00,,,0.00,WUHU216DAVISVP2,2013-03-18 18:50:00,
2013-03-18 13:55:00,16.2,11.9,29.77,NNE,18,10.0,24.0,83,0.00,,,0.00,WUHU216DAVISVP2,2013-03-18 18:55:00,
2013-03-18 14:00:00,16.3,12.0,29.77,WNW,289,6.0,19.0,83,0.00,,,0.00,WUHU216DAVISVP2,2013-03-18 19:00:00,
2013-03-18 14:05:00,16.2,11.9,29.77,North,355,13.0,22.0,83,0.00,,,0.00,WUHU216DAVISVP2,2013-03-18 19:05:00,
2013-03-18 14:10:00,16.0,11.5,29.78,West,271,9.0,22.0,82,0.00,,,0.00,WUHU216DAVISVP2,2013-03-18 19:10:00,
2013-03-18 14:15:00,16.0,11.5,29.78,West,269,14.0,22.0,82,0.00,,,0.00,WUHU216DAVISVP2,2013-03-18 19:15:00,
2013-03-18 14:20:00,15.9,11.4,29.79,West,279,2.0,22.0,82,0.00,,,0.00,WUHU216DAVISVP2,2013-03-18 19:20:00,
2013-03-18 14:25:00,16.2,11.9,29.78,WNW,287,0.0,19.0,83,0.00,,,0.00,WUHU216DAVISVP2,2013-03-18 19:25:00,
2013-03-18 14:30:00,16.3,11.8,29.79,WNW,298,0.0,23.0,82,0.00,,,0.00,WUHU216DAVISVP2,2013-03-18 19:30:00,
2013-03-18 14:35:00,16.1,11.6,29.79,WNW,302,2.0,23.0,82,0.00,,,0.00,WUHU216DAVISVP2,2013-03-18 19:35:00,
2013-03-18 14:40:00,15.9,11.4,29.79,West,260,6.0,22.0,82,0.00,,,0.00,WUHU216DAVISVP2,2013-03-18 19:40:00,
2013-03-18 14:45:00,15.7,10.9,29.80,NW,308,4.0,21.0,81,0.00,,,0.00,WUHU216DAVISVP2,2013-03-18 19:45:00,
2013-03-18 14:50:00,15.9,11.4,29.80,NW,315,14.0,20.0,82,0.00,,,0.00,WUHU216DAVISVP2,2013-03-18 19:50:00,
2013-03-18 14:55:00,15.8,11.3,29.80,WNW,302,5.0,23.0,82,0.00,,,0.00,WUHU216DAVISVP2,2013-03-18 19:55:00,
2013-03-18 15:00:00,15.7,10.9,29.80,NW,305,10.0,23.0,81,0.00,,,0.00,WUHU216DAVISVP2,2013-03-18 20:00:00,
2013-03-18 15:05:00,15.8,11.3,29.80,NNW,327,4.0,23.0,82,0.00,,,0.00,WUHU216DAVISVP2,2013-03-18 20:05:00,
2013-03-18 15:10:00,16.1,11.6,29.80,NNW,340,2.0,23.0,82,0.00,,,0.00,WUHU216DAVISVP2,2013-03-18 20:10:00,
2013-03-18 15:15:00,16.3,11.8,29.80,West,281,7.0,20.0,82,0.00,,,0.00,WUHU216DAVISVP2,2013-03-18 20:15:00,
2013-03-18 15:20:00,16.1,11.6,29.80,WNW,286,14.0,17.0,82,0.00,,,0.00,WUHU216DAVISVP2,2013-03-18 20:20:00,
2013-03-18 15:25:00,16.1,11.6,29.81,WNW,299,13.0,19.0,82,0.00,,,0.00,WUHU216DAVISVP2,2013-03-18 20:25:00,
2013-03-18 15:30:00,16.0,11.2,29.81,WNW,290,1.0,20.0,81,0.00,,,0.00,WUHU216DAVISVP2,2013-03-18 20:30:00,
2013-03-18 15:35:00,16.0,11.5,29.81,NW,313,16.0,20.0,82,0.00,,,0.00,WUHU216DAVISVP2,2013-03-18 20:35:00,
2013-03-18 15:40:00,16.1,11.6,29.81,NNW,344,5.0,18.0,82,0.00,,,0.00,WUHU216DAVISVP2,2013-03-18 20:40:00,
2013-03-18 15:45:00,16.2,11.4,29.82,NW,318,5.0,18.0,81,0.00,,,0.00,WUHU216DAVISVP2,2013-03-18 20:45:00,
2013-03-18 15:50:00,16.3,11.5,29.82,WNW,302,7.0,22.0,81,0.00,,,0.00,WUHU216DAVISVP2,2013-03-18 20:50:00,
2013-03-18 15:55:00,16.2,13.5,29.82,WNW,295,15.0,23.0,89,0.00,,,0.00,WUHU216DAVISVP2,2013-03-18 20:55:00,
2013-03-18 16:00:00,16.0,11.2,29.82,West,268,6.0,23.0,81,0.00,,,0.00,WUHU216DAVISVP2,2013-03-18 21:00:00,
2013-03-18 16:05:00,16.1,11.3,29.82,NW,310,11.0,21.0,81,0.00,,,0.00,WUHU216DAVISVP2,2013-03-18 21:05:00,
2013-03-18 16:10:00,16.2,11.4,29.83,NW,304,16.0,21.0,81,0.00,,,0.00,WUHU216DAVISVP2,2013-03-18 21:10:00,
2013-03-18 16:15:00,15.9,11.1,29.83,WNW,292,0.0,20.0,81,0.00,,,0.00,WUHU216DAVISVP2,2013-03-18 21:15:00,
2013-03-18 16:20:00,16.0,11.2,29.83,WNW,290,8.0,19.0,81,0.00,,,0.00,WUHU216DAVISVP2,2013-03-18 21:20:00,
2013-03-18 16:25:00,15.9,11.1,29.84,North,5,2.0,18.0,81,0.00,,,0.00,WUHU216DAVISVP2,2013-03-18 21:25:00,
2013-03-18 16:30:00,15.5,10.4,29.84,NNE,15,8.0,18.0,80,0.00,,,0.00,WUHU216DAVISVP2,2013-03-18 21:30:00,
2013-03-18 16:35:00,15.5,10.4,29.84,NW,315,15.0,19.0,80,0.00,,,0.00,WUHU216DAVISVP2,2013-03-18 21:35:00,
2013-03-18 16:40:00,15.4,10.3,29.85,WNW,290,13.0,19.0,80,0.00,,,0.00,WUHU216DAVISVP2,2013-03-18 21:40:00,
2013-03-18 16:45:00,15.5,10.4,29.85,West,281,6.0,18.0,80,0.00,,,0.00,WUHU216DAVISVP2,2013-03-18 21:45:00,
2013-03-18 16:50:00,15.4,10.3,29.85,West,277,3.0,18.0,80,0.00,,,0.00,WUHU216DAVISVP2,2013-03-18 21:50:00,
2013-03-18 16:55:00,15.1,9.8,29.86,West,271,9.0,25.0,79,0.00,,,0.00,WUHU216DAVISVP2,2013-03-18 21:55:00,
2013-03-18 17:00:00,14.8,9.5,29.86,NW,325,7.0,25.0,79,0.00,,,0.00,WUHU216DAVISVP2,2013-03-18 22:00:00,
2013-03-18 17:05:00,14.6,9.3,29.86,WNW,286,10.0,22.0,79,0.00,,,0.00,WUHU216DAVISVP2,2013-03-18 22:05:00,
2013-03-18 17:10:00,14.6,9.3,29.86,West,261,13.0,22.0,79,0.00,,,0.00,WUHU216DAVISVP2,2013-03-18 22:10:00,
2013-03-18 17:15:00,14.6,9.3,29.87,NNW,330,0.0,20.0,79,0.00,,,0.00,WUHU216DAVISVP2,2013-03-18 22:15:00,
2013-03-18 17:20:00,14.4,9.4,29.87,NW,321,8.0,20.0,80,0.00,,,0.00,WUHU216DAVISVP2,2013-03-18 22:20:00,
2013-03-18 17:25:00,14.4,9.4,29.87,NNW,327,11.0,20.0,80,0.00,,,0.00,WUHU216DAVISVP2,2013-03-18 22:25:00,
2013-03-18 17:30:00,14.3,9.0,29.88,West,263,16.0,20.0,79,0.00,,,0.00,WUHU216DAVISVP2,2013-03-18 22:30:00,
2013-03-18 17:35:00,14.3,9.0,29.88,WNW,290,4.0,20.0,79,0.00,,,0.00,WUHU216DAVISVP2,2013-03-18 22:35:00,
2013-03-18 17:40:00,14.1,8.8,29.88,WNW,301,2.0,19.0,79,0.00,,,0.00,WUHU216DAVISVP2,2013-03-18 22:40:00,
2013-03-18 17:45:00,13.9,8.6,29.88,West,277,22.0,22.0,79,0.00,,,0.00,WUHU216DAVISVP2,2013-03-18 22:45:00,
2013-03-18 17:50:00,13.8,8.5,29.89,WNW,292,1.0,22.0,79,0.00,,,0.00,WUHU216DAVISVP2,2013-03-18 22:50:00,
2013-03-18 17:55:00,13.7,8.4,29.89,NNW,334,11.0,23.0,79,0.00,,,0.00,WUHU216DAVISVP2,2013-03-18 22:55:00,
2013-03-18 18:00:00,13.5,8.2,29.89,West,269,9.0,23.0,79,0.00,,,0.00,WUHU216DAVISVP2,2013-03-18 23:00:00,
2013-03-18 18:05:00,13.4,8.1,29.89,WNW,286,4.0,17.0,79,0.00,,,0.00,WUHU216DAVISVP2,2013-03-18 23:05:00,
2013-03-18 18:10:00,13.2,7.9,29.90,West,262,9.0,18.0,79,0.00,,,0.00,WUHU216DAVISVP2,2013-03-18 23:10:00,
2013-03-18 18:15:00,13.1,7.5,29.90,NW,318,12.0,18.0,78,0.00,,,0.00,WUHU216DAVISVP2,2013-03-18 23:15:00,
2013-03-18 18:20:00,12.9,7.3,29.90,WNW,296,15.0,21.0,78,0.00,,,0.00,WUHU216DAVISVP2,2013-03-18 23:20:00,
2013-03-18 18:25:00,12.8,7.2,29.91,West,279,13.0,21.0,78,0.00,,,0.00,WUHU216DAVISVP2,2013-03-18 23:25:00,
2013-03-18 18:30:00,12.7,7.1,29.91,West,263,6.0,22.0,78,0.00,,,0.00,WUHU216DAVISVP2,2013-03-18 23:30:00,
2013-03-18 18:35:00,12.5,7.0,29.91,West,273,7.0,22.0,78,0.00,,,0.00,WUHU216DAVISVP2,2013-03-18 23:35:00,
2013-03-18 18:40:00,12.4,6.6,29.91,West,279,3.0,22.0,77,0.00,,,0.00,WUHU216DAVISVP2,2013-03-18 23:40:00,
2013-03-18 18:45:00,12.3,6.5,29.92,West,269,7.0,22.0,77,0.00,,,0.00,WUHU216DAVISVP2,2013-03-18 23:45:00,
2013-03-18 18:50:00,12.1,6.3,29.92,WNW,301,14.0,17.0,77,0.00,,,0.00,WUHU216DAVISVP2,2013-03-18 23:50:00,
2013-03-18 18:55:00,11.9,6.1,29.92,West,279,6.0,17.0,77,0.00,,,0.00,WUHU216DAVISVP2,2013-03-18 23:55:00,
2013-03-18 19:00:00,11.7,5.9,29.92,WNW,285,10.0,17.0,77,0.00,,,0.00,WUHU216DAVISVP2,2013-03-19 00:00:00,
2013-03-18 19:05:00,11.4,5.6,29.93,NW,317,0.0,17.0,77,0.00,,,0.00,WUHU216DAVISVP2,2013-03-19 00:05:00,
2013-03-18 19:10:00,11.3,5.8,29.93,NW,313,3.0,16.0,78,0.00,,,0.00,WUHU216DAVISVP2,2013-03-19 00:10:00,
2013-03-18 19:15:00,11.1,5.6,29.93,NW,310,4.0,16.0,78,0.00,,,0.00,WUHU216DAVISVP2,2013-03-19 00:15:00,
2013-03-18 19:20:00,10.9,5.4,29.94,WNW,294,15.0,15.0,78,0.00,,,0.00,WUHU216DAVISVP2,2013-03-19 00:20:00,
2013-03-18 19:25:00,10.8,5.3,29.94,WNW,283,0.0,15.0,78,0.00,,,0.00,WUHU216DAVISVP2,2013-03-19 00:25:00,
2013-03-18 19:30:00,10.7,5.2,29.94,West,276,2.0,15.0,78,0.00,,,0.00,WUHU216DAVISVP2,2013-03-19 00:30:00,
2013-03-18 19:35:00,10.5,5.0,29.94,West,267,4.0,15.0,78,0.00,,,0.00,WUHU216DAVISVP2,2013-03-19 00:35:00,
2013-03-18 19:40:00,10.4,4.9,29.94,WNW,301,6.0,18.0,78,0.00,,,0.00,WUHU216DAVISVP2,2013-03-19 00:40:00,
2013-03-18 19:46:00,10.2,4.7,29.95,West,279,2.0,18.0,78,0.00,,,0.00,WUHU216DAVISVP2,2013-03-19 00:46:00,
2013-03-18 19:51:00,10.1,4.6,29.95,West,268,1.0,15.0,78,0.00,,,0.00,WUHU216DAVISVP2,2013-03-19 00:51:00,
2013-03-18 19:56:00,10.0,4.5,29.95,WNW,296,6.0,16.0,78,0.00,,,0.00,WUHU216DAVISVP2,2013-03-19 00:56:00,
2013-03-18 20:01:00,9.9,4.4,29.95,WNW,296,0.0,16.0,78,0.00,,,0.00,WUHU216DAVISVP2,2013-03-19 01:01:00,
2013-03-18 20:06:00,9.9,4.4,29.96,West,281,1.0,15.0,78,0.00,,,0.00,WUHU216DAVISVP2,2013-03-19 01:06:00,
2013-03-18 20:11:00,9.9,4.4,29.96,WNW,295,12.0,15.0,78,0.00,,,0.00,WUHU216DAVISVP2,2013-03-19 01:11:00,
2013-03-18 20:16:00,9.8,4.3,29.96,WNW,283,4.0,15.0,78,0.00,,,0.00,WUHU216DAVISVP2,2013-03-19 01:16:00,
2013-03-18 20:21:00,9.7,4.2,29.96,WNW,287,0.0,15.0,78,0.00,,,0.00,WUHU216DAVISVP2,2013-03-19 01:21:00,
2013-03-18 20:26:00,9.6,4.1,29.97,WNW,300,0.0,12.0,78,0.00,,,0.00,WUHU216DAVISVP2,2013-03-19 01:26:00,
2013-03-18 20:31:00,9.5,4.0,29.97,West,260,5.0,14.0,78,0.00,,,0.00,WUHU216DAVISVP2,2013-03-19 01:31:00,
2013-03-18 20:36:00,9.4,3.9,29.97,WNW,288,0.0,14.0,78,0.00,,,0.00,WUHU216DAVISVP2,2013-03-19 01:36:00,
2013-03-18 20:41:00,9.3,3.8,29.97,WNW,290,4.0,14.0,78,0.00,,,0.00,WUHU216DAVISVP2,2013-03-19 01:41:00,
2013-03-18 20:46:00,9.2,3.7,29.98,WNW,302,8.0,11.0,78,0.00,,,0.00,WUHU216DAVISVP2,2013-03-19 01:46:00,
2013-03-18 20:51:00,9.0,3.5,29.98,NW,313,1.0,12.0,78,0.00,,,0.00,WUHU216DAVISVP2,2013-03-19 01:51:00,
2013-03-18 20:56:00,8.9,3.4,29.98,WNW,285,0.0,12.0,78,0.00,,,0.00,WUHU216DAVISVP2,2013-03-19 01:56:00,
2013-03-18 21:01:00,8.9,3.4,29.98,West,279,6.0,15.0,78,0.00,,,0.00,WUHU216DAVISVP2,2013-03-19 02:01:00,
2013-03-18 21:06:00,8.8,3.4,29.98,NW,314,1.0,15.0,78,0.00,,,0.00,WUHU216DAVISVP2,2013-03-19 02:06:00,
2013-03-18 21:11:00,8.8,3.4,29.98,West,276,1.0,13.0,78,0.00,,,0.00,WUHU216DAVISVP2,2013-03-19 02:11:00,
2013-03-18 21:16:00,8.7,3.3,29.99,West,274,1.0,12.0,78,0.00,,,0.00,WUHU216DAVISVP2,2013-03-19 02:16:00,
2013-03-18 21:21:00,8.7,3.3,29.99,NW,318,9.0,15.0,78,0.00,,,0.00,WUHU216DAVISVP2,2013-03-19 02:21:00,
2013-03-18 21:26:00,8.6,3.2,29.99,WNW,292,4.0,15.0,78,0.00,,,0.00,WUHU216DAVISVP2,2013-03-19 02:26:00,
2013-03-18 21:31:00,8.5,3.1,29.99,WNW,289,2.0,16.0,78,0.00,,,0.00,WUHU216DAVISVP2,2013-03-19 02:31:00,
2013-03-18 21:36:00,8.5,3.1,30.00,West,280,1.0,16.0,78,0.00,,,0.00,WUHU216DAVISVP2,2013-03-19 02:36:00,
2013-03-18 21:41:00,8.5,3.1,30.00,WNW,302,0.0,17.0,78,0.00,,,0.00,WUHU216DAVISVP2,2013-03-19 02:41:00,
2013-03-18 21:46:00,8.5,3.1,30.00,WNW,297,3.0,17.0,78,0.00,,,0.00,WUHU216DAVISVP2,2013-03-19 02:46:00,
2013-03-18 21:51:00,8.5,2.8,30.00,West,267,3.0,14.0,77,0.00,,,0.00,WUHU216DAVISVP2,2013-03-19 02:51:00,
2013-03-18 21:56:00,8.5,2.8,30.00,West,273,9.0,13.0,77,0.00,,,0.00,WUHU216DAVISVP2,2013-03-19 02:56:00,
2013-03-18 22:01:00,8.5,2.8,30.00,West,278,2.0,12.0,77,0.00,,,0.00,WUHU216DAVISVP2,2013-03-19 03:01:00,
2013-03-18 22:06:00,8.4,2.7,30.01,WNW,292,7.0,14.0,77,0.00,,,0.00,WUHU216DAVISVP2,2013-03-19 03:06:00,
2013-03-18 22:11:00,8.4,2.7,30.01,WNW,300,0.0,14.0,77,0.00,,,0.00,WUHU216DAVISVP2,2013-03-19 03:11:00,
2013-03-18 22:16:00,8.2,2.5,30.01,WNW,293,0.0,14.0,77,0.00,,,0.00,WUHU216DAVISVP2,2013-03-19 03:16:00,
2013-03-18 22:21:00,8.1,2.4,30.02,West,269,0.0,14.0,77,0.00,,,0.00,WUHU216DAVISVP2,2013-03-19 03:21:00,
2013-03-18 22:26:00,7.8,2.1,30.02,WNW,287,0.0,12.0,77,0.00,,,0.00,WUHU216DAVISVP2,2013-03-19 03:26:00,
2013-03-18 22:31:00,7.5,1.8,30.02,West,264,0.0,12.0,77,0.00,,,0.00,WUHU216DAVISVP2,2013-03-19 03:31:00,
2013-03-18 22:36:00,7.2,1.5,30.02,West,277,0.0,13.0,77,0.00,,,0.00,WUHU216DAVISVP2,2013-03-19 03:36:00,
2013-03-18 22:41:00,6.9,1.2,30.02,West,277,3.0,13.0,77,0.00,,,0.00,WUHU216DAVISVP2,2013-03-19 03:41:00,
2013-03-18 22:46:00,6.7,1.0,30.02,NW,309,0.0,13.0,77,0.00,,,0.00,WUHU216DAVISVP2,2013-03-19 03:46:00,
2013-03-18 22:51:00,6.6,0.9,30.02,WNW,287,0.0,14.0,77,0.00,,,0.00,WUHU216DAVISVP2,2013-03-19 03:51:00,
2013-03-18 22:56:00,6.5,0.8,30.02,WNW,287,7.0,14.0,77,0.00,,,0.00,WUHU216DAVISVP2,2013-03-19 03:56:00,
2013-03-18 23:00:00,6.4,0.7,30.03,WNW,288,0.0,14.0,77,0.00,,,0.00,WUHU216DAVISVP2,2013-03-19 04:00:00,
2013-03-18 23:05:00,6.3,0.6,30.03,WNW,298,0.0,13.0,77,0.00,,,0.00,WUHU216DAVISVP2,2013-03-19 04:05:00,
2013-03-18 23:10:00,6.2,0.6,30.03,West,275,4.0,11.0,77,0.00,,,0.00,WUHU216DAVISVP2,2013-03-19 04:10:00,
2013-03-18 23:15:00,6.2,0.6,30.03,West,281,0.0,11.0,77,0.00,,,0.00,WUHU216DAVISVP2,2013-03-19 04:15:00,
2013-03-18 23:20:00,6.1,0.5,30.03,West,281,0.0,11.0,77,0.00,,,0.00,WUHU216DAVISVP2,2013-03-19 04:20:00,
2013-03-18 23:25:00,6.0,0.4,30.03,WNW,292,0.0,10.0,77,0.00,,,0.00,WUHU216DAVISVP2,2013-03-19 04:25:00,
2013-03-18 23:30:00,5.9,0.3,30.03,West,263,6.0,10.0,77,0.00,,,0.00,WUHU216DAVISVP2,2013-03-19 04:30:00,
2013-03-18 23:36:00,5.8,0.2,30.04,WNW,286,7.0,11.0,77,0.00,,,0.00,WUHU216DAVISVP2,2013-03-19 04:36:00,
2013-03-18 23:41:00,5.8,0.2,30.04,WNW,292,0.0,12.0,77,0.00,,,0.00,WUHU216DAVISVP2,2013-03-19 04:41:00,
2013-03-18 23:46:00,5.7,0.1,30.04,WNW,285,0.0,12.0,77,0.00,,,0.00,WUHU216DAVISVP2,2013-03-19 04:46:00,
2013-03-18 23:51:00,5.6,0.0,30.04,WNW,283,5.0,13.0,77,0.00,,,0.00,WUHU216DAVISVP2,2013-03-19 04:51:00,
2013-03-18 23:56:00,5.5,-0.1,30.04,West,281,0.0,13.0,77,0.00,,,0.00,WUHU216DAVISVP2,2013-03-19 04:56:00,